Time;durP1;ratioP1;P1;durP2;ratioP2;P2;SDS_P1;SDS_P2;PMS_P1;PMS_P2;Temp;Humidity;BMP_temperature;BMP_pressure;BME280_temperature;BME280_humidity;BME280_pressure;Samples;Min_cycle;Max_cycle;Signal;HPM_P1;HPM_P2
2021/04/03 00:01:23;;;;;;;18.20;10.38;;;;;;;7.76;45.41;99653.69;5056994;28;20048;-80
2021/04/03 00:03:50;;;;;;;19.00;11.05;;;;;;;7.74;45.35;99655.59;5056761;28;20087;-81
2021/04/03 00:06:16;;;;;;;23.08;13.65;;;;;;;7.71;45.57;99645.28;5060999;28;20083;-80
2021/04/03 00:08:43;;;;;;;21.75;11.80;;;;;;;7.71;45.56;99650.53;5060505;28;20157;-81
2021/04/03 00:11:11;;;;;;;19.40;11.63;;;;;;;7.68;45.51;99636.78;5060341;28;20047;-79
2021/04/03 00:13:40;;;;;;;20.13;12.15;;;;;;;7.65;45.98;99645.69;5060462;28;20063;-79
2021/04/03 00:16:07;;;;;;;21.45;12.30;;;;;;;7.62;46.12;99648.56;5059034;28;20037;-79
2021/04/03 00:18:34;;;;;;;21.75;12.18;;;;;;;7.59;46.20;99656.66;5059500;28;20045;-81
2021/04/03 00:21:00;;;;;;;23.15;13.38;;;;;;;7.60;46.17;99656.56;5061455;28;20102;-79
2021/04/03 00:23:27;;;;;;;28.23;15.00;;;;;;;7.56;46.36;99654.22;5062158;28;20048;-80
2021/04/03 00:25:54;;;;;;;33.92;15.35;;;;;;;7.57;46.34;99653.31;5062990;28;20167;-80
2021/04/03 00:28:21;;;;;;;38.78;18.20;;;;;;;7.57;46.58;99651.50;5060253;28;20055;-80
2021/04/03 00:30:48;;;;;;;41.88;21.33;;;;;;;7.56;46.58;99648.97;5063799;28;20496;-80
2021/04/03 00:33:14;;;;;;;37.60;20.38;;;;;;;7.59;46.49;99648.78;5062239;28;20134;-80
2021/04/03 00:35:44;;;;;;;68.45;29.17;;;;;;;7.59;46.59;99646.16;5063983;28;20043;-80
2021/04/03 00:38:12;;;;;;;60.50;27.88;;;;;;;7.58;46.82;99649.72;5065243;28;20032;-81
2021/04/03 00:40:40;;;;;;;63.95;25.83;;;;;;;7.58;46.74;99645.31;5065108;28;20067;-81
2021/04/03 00:43:10;;;;;;;38.05;18.42;;;;;;;7.60;46.73;99643.41;5063182;28;20037;-80
2021/04/03 00:45:37;;;;;;;47.67;22.25;;;;;;;7.63;46.77;99648.47;5063958;28;20059;-81
2021/04/03 00:48:04;;;;;;;36.65;19.98;;;;;;;7.64;46.88;99649.28;5064420;28;20040;-80
2021/04/03 00:50:36;;;;;;;58.38;26.75;;;;;;;7.65;46.94;99653.59;5061923;28;20044;-81
2021/04/03 00:53:04;;;;;;;42.50;19.70;;;;;;;7.67;47.03;99646.47;5061158;28;20110;-80
2021/04/03 00:55:32;;;;;;;53.00;23.90;;;;;;;7.66;47.10;99644.78;5050903;28;20053;-80
2021/04/03 00:57:59;;;;;;;62.85;27.05;;;;;;;7.65;47.32;99649.19;5048820;28;20434;-80
2021/04/03 01:00:27;;;;;;;44.92;23.02;;;;;;;7.62;47.36;99643.31;5047234;28;20500;-79
2021/04/03 01:02:54;;;;;;;65.25;28.80;;;;;;;7.58;47.96;99641.81;5049819;28;20049;-79
2021/04/03 01:05:23;;;;;;;51.28;28.20;;;;;;;7.57;48.05;99642.78;5048223;28;20041;-80
2021/04/03 01:07:50;;;;;;;39.45;21.85;;;;;;;7.55;48.10;99644.69;5049613;28;20045;-80
2021/04/03 01:10:19;;;;;;;82.85;35.80;;;;;;;7.51;48.29;99635.31;5048797;28;20056;-80
2021/04/03 01:12:59;;;;;;;60.20;26.45;;;;;;;7.46;48.56;99641.75;5047596;28;20511;-80
2021/04/03 01:15:37;;;;;;;54.22;26.20;;;;;;;7.44;48.66;99641.00;5049902;28;20068;-81
2021/04/03 01:18:13;;;;;;;63.45;30.20;;;;;;;7.39;48.94;99637.84;5048067;28;20144;-81
2021/04/03 01:20:57;;;;;;;56.10;28.52;;;;;;;7.38;49.28;99644.06;5048283;28;20489;-79
2021/04/03 01:24:01;;;;;;;58.92;27.20;;;;;;;7.39;49.09;99640.47;5047919;28;20615;-80
2021/04/03 01:26:49;;;;;;;38.92;20.85;;;;;;;7.39;49.05;99640.47;5047426;28;20056;-80
2021/04/03 01:29:48;;;;;;;46.63;22.33;;;;;;;7.37;49.41;99637.13;5046662;28;20124;-79
2021/04/03 01:32:18;;;;;;;43.22;22.00;;;;;;;7.37;49.50;99639.75;5048331;28;20140;-80
2021/04/03 01:34:47;;;;;;;35.92;21.17;;;;;;;7.40;49.62;99636.91;5046959;28;20044;-79
2021/04/03 01:37:18;;;;;;;51.80;24.25;;;;;;;7.41;49.52;99638.59;5048961;28;20076;-79
2021/04/03 01:39:48;;;;;;;33.97;18.55;;;;;;;7.41;49.84;99643.84;5047014;28;20045;-80
2021/04/03 01:42:19;;;;;;;32.85;17.35;;;;;;;7.38;50.21;99643.22;5047436;28;20067;-78
2021/04/03 01:44:50;;;;;;;31.15;19.15;;;;;;;7.33;50.16;99646.16;5048144;28;20048;-79
2021/04/03 01:47:20;;;;;;;29.23;18.20;;;;;;;7.23;50.66;99645.13;5046429;28;20052;-79
2021/04/03 01:49:50;;;;;;;34.78;19.60;;;;;;;7.18;50.74;99647.22;5047769;28;20148;-80
2021/04/03 01:52:21;;;;;;;38.25;20.67;;;;;;;7.16;50.90;99649.94;5047019;28;20106;-80
2021/04/03 01:54:48;;;;;;;40.83;21.40;;;;;;;7.15;50.86;99647.41;5047133;28;20049;-78
2021/04/03 01:57:16;;;;;;;33.67;19.33;;;;;;;7.14;50.93;99640.50;5045665;28;20121;-79
2021/04/03 01:59:43;;;;;;;36.85;18.45;;;;;;;7.10;51.06;99644.28;5044808;28;20061;-81
2021/04/03 02:02:10;;;;;;;38.88;20.38;;;;;;;7.06;51.30;99639.22;5046379;28;20692;-80
2021/04/03 02:04:42;;;;;;;33.47;20.20;;;;;;;7.04;51.50;99643.75;5047246;28;20056;-80
2021/04/03 02:07:11;;;;;;;34.15;19.88;;;;;;;7.02;51.47;99647.41;5048105;28;20065;-80
2021/04/03 02:09:38;;;;;;;33.35;17.65;;;;;;;7.01;51.66;99646.56;5046675;28;20140;-81
2021/04/03 02:12:06;;;;;;;38.40;19.92;;;;;;;7.00;51.60;99644.88;5046025;28;20053;-81
2021/04/03 02:14:33;;;;;;;34.72;19.52;;;;;;;7.02;51.75;99647.41;5046477;28;20053;-80
2021/04/03 02:17:00;;;;;;;38.65;19.80;;;;;;;7.04;51.62;99646.38;5045870;28;20628;-79
2021/04/03 02:19:28;;;;;;;31.63;18.95;;;;;;;7.03;51.99;99652.56;5047394;28;20059;-80
2021/04/03 02:21:56;;;;;;;30.67;17.00;;;;;;;7.04;51.86;99648.13;5046950;28;20052;-80
2021/04/03 02:24:24;;;;;;;28.00;16.45;;;;;;;7.03;51.88;99644.69;5046816;28;20053;-82
2021/04/03 02:26:50;;;;;;;22.83;14.98;;;;;;;7.05;51.97;99650.66;5048080;28;20041;-80
2021/04/03 02:29:17;;;;;;;28.83;15.13;;;;;;;7.06;52.02;99649.72;5044704;28;20045;-80
2021/04/03 02:31:44;;;;;;;32.15;16.98;;;;;;;7.08;51.83;99647.84;5046654;28;20115;-80
2021/04/03 02:34:10;;;;;;;26.50;14.00;;;;;;;7.13;51.67;99647.53;5047286;28;20089;-81
2021/04/03 02:36:37;;;;;;;30.70;16.98;;;;;;;7.15;51.75;99645.66;5046503;28;20078;-80
2021/04/03 02:39:06;;;;;;;32.50;19.45;;;;;;;7.19;51.84;99641.03;5046246;28;20049;-82
2021/04/03 02:41:38;;;;;;;35.08;18.73;;;;;;;7.20;51.87;99642.69;5046565;28;20064;-79
2021/04/03 02:44:12;;;;;;;36.08;17.83;;;;;;;7.23;51.70;99645.94;5045211;28;20125;-81
2021/04/03 02:46:47;;;;;;;29.48;18.65;;;;;;;7.28;51.52;99648.28;5047386;28;20061;-81
2021/04/03 02:49:19;;;;;;;32.85;17.40;;;;;;;7.33;51.59;99642.69;5045724;28;20543;-79
2021/04/03 02:51:47;;;;;;;26.77;14.63;;;;;;;7.31;51.67;99650.69;5045503;28;20053;-81
2021/04/03 02:54:17;;;;;;;30.67;16.95;;;;;;;7.33;51.53;99646.16;5046664;28;20101;-80
2021/04/03 02:56:46;;;;;;;20.85;12.40;;;;;;;7.30;52.28;99650.78;5046761;28;20052;-80
2021/04/03 02:59:17;;;;;;;21.90;13.80;;;;;;;7.30;52.32;99648.16;5042293;28;20149;-80
2021/04/03 03:01:46;;;;;;;19.73;11.50;;;;;;;7.32;52.42;99644.47;5045598;28;20049;-81
2021/04/03 03:04:16;;;;;;;23.75;12.13;;;;;;;7.34;52.26;99653.09;5046090;28;20049;-80
2021/04/03 03:06:45;;;;;;;22.48;11.40;;;;;;;7.37;52.32;99647.63;5044630;28;20122;-80
2021/04/03 03:09:13;;;;;;;18.48;11.93;;;;;;;7.32;52.47;99652.34;5045802;28;20055;-81
2021/04/03 03:11:44;;;;;;;16.48;10.60;;;;;;;7.26;52.78;99655.41;5044419;28;20045;-80
2021/04/03 03:14:13;;;;;;;27.90;12.05;;;;;;;7.16;53.17;99659.59;5044369;28;20198;-80
2021/04/03 03:16:41;;;;;;;21.75;12.90;;;;;;;7.11;53.69;99657.28;5044219;28;20053;-80
2021/04/03 03:19:08;;;;;;;24.10;12.90;;;;;;;7.10;53.54;99654.78;5043801;28;20093;-80
2021/04/03 03:21:36;;;;;;;20.13;12.02;;;;;;;7.06;53.64;99654.16;5044340;28;20094;-81
2021/04/03 03:24:03;;;;;;;19.90;10.73;;;;;;;7.02;53.97;99656.13;5045687;28;20458;-81
2021/04/03 03:26:32;;;;;;;18.83;12.55;;;;;;;6.94;54.52;99658.44;5045001;28;20059;-81
2021/04/03 03:29:01;;;;;;;15.57;11.00;;;;;;;6.83;55.25;99655.69;5044058;28;20045;-80
2021/04/03 03:31:28;;;;;;;13.88;10.05;;;;;;;6.73;55.39;99659.84;5044786;28;20053;-81
2021/04/03 03:33:54;;;;;;;17.75;9.98;;;;;;;6.67;55.88;99666.34;5043831;28;20477;-80
2021/04/03 03:36:21;;;;;;;12.45;9.00;;;;;;;6.63;56.13;99670.13;5045802;28;20053;-81
2021/04/03 03:38:49;;;;;;;12.18;8.02;;;;;;;6.57;56.56;99668.75;5045376;28;20412;-81
2021/04/03 03:41:16;;;;;;;9.80;6.53;;;;;;;6.57;56.52;99666.13;5045384;28;20110;-80
2021/04/03 03:43:43;;;;;;;12.02;7.97;;;;;;;6.60;56.53;99663.28;5045307;28;20064;-82
2021/04/03 03:46:11;;;;;;;10.88;7.03;;;;;;;6.55;56.78;99667.16;5045591;28;20053;-79
2021/04/03 03:48:38;;;;;;;9.63;5.72;;;;;;;6.63;56.37;99670.13;5044057;28;20049;-81
2021/04/03 03:51:05;;;;;;;8.50;5.00;;;;;;;6.69;55.96;99672.34;5044253;28;20049;-80
2021/04/03 03:53:32;;;;;;;5.93;3.83;;;;;;;6.74;55.75;99679.91;5045024;28;20047;-79
2021/04/03 03:56:00;;;;;;;10.43;4.45;;;;;;;6.79;55.61;99673.41;5043552;28;20048;-79
2021/04/03 03:58:27;;;;;;;10.38;6.03;;;;;;;6.67;56.54;99680.31;5043614;28;20045;-79
2021/04/03 04:00:54;;;;;;;7.80;4.43;;;;;;;6.63;56.60;99689.31;5045615;28;20052;-79
2021/04/03 04:03:21;;;;;;;8.75;4.18;;;;;;;6.67;56.11;99685.56;5044223;28;20079;-79
2021/04/03 04:05:48;;;;;;;9.18;4.03;;;;;;;6.66;56.14;99688.28;5044369;28;20098;-79
2021/04/03 04:08:18;;;;;;;9.40;3.60;;;;;;;6.68;55.83;99696.88;5045026;28;20057;-80
2021/04/03 04:10:45;;;;;;;6.88;3.20;;;;;;;6.64;55.99;99701.50;5043356;28;20049;-78
2021/04/03 04:13:12;;;;;;;8.20;2.75;;;;;;;6.66;55.91;99693.53;5044314;28;20056;-78
2021/04/03 04:15:38;;;;;;;6.78;4.18;;;;;;;6.62;56.63;99697.28;5043805;28;20053;-78
2021/04/03 04:18:05;;;;;;;6.30;3.35;;;;;;;6.56;56.57;99695.09;5043788;28;20059;-78
2021/04/03 04:20:33;;;;;;;8.32;3.67;;;;;;;6.46;56.69;99700.94;5044000;28;20539;-78
2021/04/03 04:23:00;;;;;;;6.03;3.10;;;;;;;6.29;57.23;99712.47;5044802;28;20484;-81
2021/04/03 04:25:28;;;;;;;7.60;5.32;;;;;;;6.11;58.95;99716.25;5043676;28;20049;-79
2021/04/03 04:27:54;;;;;;;7.80;5.03;;;;;;;5.84;61.17;99714.38;5045577;28;20083;-82
2021/04/03 04:30:22;;;;;;;6.90;5.25;;;;;;;5.62;62.01;99721.84;5043485;28;20049;-80
2021/04/03 04:32:48;;;;;;;8.63;4.88;;;;;;;5.32;63.28;99722.78;5044415;28;20136;-78
2021/04/03 04:35:16;;;;;;;6.00;2.65;;;;;;;5.25;62.56;99735.38;5046656;28;20088;-81
2021/04/03 04:37:43;;;;;;;4.32;2.63;;;;;;;5.23;62.08;99725.94;5047023;28;20068;-78
2021/04/03 04:40:12;;;;;;;6.85;2.95;;;;;;;5.13;61.94;99736.09;5050325;28;20102;-77
2021/04/03 04:42:40;;;;;;;6.25;4.53;;;;;;;5.01;62.01;99732.41;5049355;28;20056;-79
2021/04/03 04:45:08;;;;;;;9.43;6.68;;;;;;;4.92;63.51;99744.25;5046855;28;20049;-79
2021/04/03 04:47:34;;;;;;;8.98;5.30;;;;;;;4.76;64.94;99733.81;5046459;28;20124;-80
2021/04/03 04:50:01;;;;;;;7.15;3.75;;;;;;;4.74;64.65;99732.22;5048191;28;20656;-77
2021/04/03 04:52:28;;;;;;;10.43;6.15;;;;;;;4.75;64.64;99736.50;5053215;28;20045;-78
2021/04/03 04:54:55;;;;;;;7.88;3.72;;;;;;;4.74;64.38;99745.31;5065414;28;20033;-80
2021/04/03 04:57:22;;;;;;;5.68;2.45;;;;;;;4.77;63.89;99745.13;5067727;28;20033;-78
2021/04/03 04:59:48;;;;;;;6.15;3.70;;;;;;;4.78;63.48;99749.44;5064273;28;20100;-78
2021/04/03 05:02:15;;;;;;;7.68;3.55;;;;;;;4.77;63.60;99755.59;5066349;28;20067;-80
2021/04/03 05:04:41;;;;;;;13.65;8.90;;;;;;;4.64;65.86;99749.38;5053109;28;20045;-80
2021/04/03 05:07:08;;;;;;;11.05;7.75;;;;;;;4.48;66.38;99759.84;5047794;28;20045;-79
2021/04/03 05:09:34;;;;;;;11.95;8.32;;;;;;;4.34;66.91;99757.97;5053093;28;20041;-79
2021/04/03 05:12:02;;;;;;;12.50;8.27;;;;;;;4.17;67.23;99761.50;5054017;28;20049;-78
2021/04/03 05:14:29;;;;;;;14.98;8.43;;;;;;;4.09;67.21;99775.00;5054067;28;20477;-78
2021/04/03 05:16:55;;;;;;;12.80;8.70;;;;;;;4.04;67.62;99770.94;5051739;28;20064;-77
2021/04/03 05:19:22;;;;;;;13.07;7.25;;;;;;;3.99;67.79;99772.00;5048842;28;20051;-77
2021/04/03 05:21:48;;;;;;;12.73;6.97;;;;;;;4.02;67.63;99771.84;5046923;28;20065;-76
2021/04/03 05:24:15;;;;;;;12.95;7.88;;;;;;;3.93;67.81;99768.91;5048316;28;20057;-77
2021/04/03 05:26:41;;;;;;;13.60;9.18;;;;;;;3.84;68.06;99775.44;5045597;28;20049;-77
2021/04/03 05:29:08;;;;;;;17.30;9.20;;;;;;;3.79;68.12;99777.44;5043757;28;20049;-76
2021/04/03 05:31:35;;;;;;;16.65;11.32;;;;;;;3.69;68.60;99784.94;5046483;28;20071;-78
2021/04/03 05:34:01;;;;;;;16.30;9.77;;;;;;;3.64;68.62;99784.31;5045196;28;20505;-78
2021/04/03 05:36:28;;;;;;;13.88;8.73;;;;;;;3.73;68.23;99783.00;5045650;28;20055;-76
2021/04/03 05:38:54;;;;;;;15.90;10.52;;;;;;;3.82;67.93;99787.75;5046284;28;20095;-79
2021/04/03 05:41:21;;;;;;;21.23;11.95;;;;;;;3.82;67.98;99790.34;5047964;28;20049;-77
2021/04/03 05:43:48;;;;;;;18.60;11.35;;;;;;;3.79;68.58;99786.13;5049133;28;20071;-78
2021/04/03 05:46:19;;;;;;;25.52;13.40;;;;;;;3.86;68.52;99788.44;5047669;28;20048;-78
2021/04/03 05:48:47;;;;;;;18.65;11.93;;;;;;;3.88;68.59;99790.03;5046090;28;20045;-78
2021/04/03 05:51:14;;;;;;;19.45;11.15;;;;;;;4.00;68.13;99789.38;5044043;28;20616;-78
2021/04/03 05:53:41;;;;;;;20.00;13.25;;;;;;;3.98;68.43;99788.63;5045297;28;20080;-78
2021/04/03 05:56:08;;;;;;;21.52;13.57;;;;;;;3.99;68.77;99795.53;5045523;28;20049;-78
2021/04/03 05:58:36;;;;;;;16.27;10.43;;;;;;;4.08;68.77;99796.81;5045581;28;20496;-77
2021/04/03 06:01:05;;;;;;;17.48;10.10;;;;;;;4.18;68.78;99797.19;5044449;28;20074;-77
2021/04/03 06:03:34;;;;;;;18.10;9.05;;;;;;;4.29;68.70;99794.84;5044846;28;20045;-77
2021/04/03 06:06:00;;;;;;;18.52;9.68;;;;;;;4.31;68.53;99803.44;5046903;28;20045;-79
2021/04/03 06:08:30;;;;;;;19.90;12.48;;;;;;;4.40;68.79;99799.47;5044941;28;20045;-78
2021/04/03 06:11:13;;;;;;;14.77;9.93;;;;;;;4.44;68.93;99803.59;5044679;28;20055;-77
2021/04/03 06:13:40;;;;;;;21.27;12.18;;;;;;;4.54;68.50;99801.34;5045033;28;20602;-78
2021/04/03 06:16:27;;;;;;;21.35;11.85;;;;;;;4.63;68.97;99792.13;5044167;28;20049;-79
2021/04/03 06:19:16;;;;;;;20.48;13.05;;;;;;;4.67;68.88;99793.66;5044925;28;20060;-79
2021/04/03 06:21:44;;;;;;;17.25;12.32;;;;;;;4.72;68.80;99792.47;5044458;28;20138;-79
2021/04/03 06:24:22;;;;;;;16.95;12.25;;;;;;;4.74;69.04;99793.25;5044400;28;20128;-78
2021/04/03 06:26:53;;;;;;;18.60;12.70;;;;;;;4.81;68.68;99796.38;5045142;28;20115;-77
2021/04/03 06:29:32;;;;;;;19.02;12.30;;;;;;;4.93;68.84;99800.03;5042827;28;20059;-78
2021/04/03 06:31:59;;;;;;;19.83;13.52;;;;;;;4.90;68.87;99793.22;5045904;28;20077;-80
2021/04/03 06:34:29;;;;;;;20.77;15.52;;;;;;;5.08;68.53;99798.34;5046423;28;20049;-77
2021/04/03 06:36:56;;;;;;;22.90;13.70;;;;;;;5.23;68.44;99805.31;5044478;28;20052;-79
2021/04/03 06:39:23;;;;;;;16.90;13.43;;;;;;;5.32;68.22;99796.94;5044977;28;20053;-77
2021/04/03 06:41:50;;;;;;;18.23;11.43;;;;;;;5.42;67.73;99797.25;5045705;28;20071;-79
2021/04/03 06:44:17;;;;;;;22.85;14.80;;;;;;;5.43;67.56;99804.16;5043294;28;20513;-78
2021/04/03 06:46:44;;;;;;;16.40;12.10;;;;;;;5.49;67.54;99805.56;5044882;28;20053;-79
2021/04/03 06:49:13;;;;;;;17.58;13.45;;;;;;;5.42;67.73;99805.09;5046564;28;20094;-78
2021/04/03 06:51:42;;;;;;;19.67;13.95;;;;;;;5.52;67.84;99811.47;5043192;28;20048;-78
2021/04/03 06:54:10;;;;;;;21.52;16.35;;;;;;;5.55;67.87;99811.31;5043152;28;20107;-78
2021/04/03 06:56:38;;;;;;;21.67;14.85;;;;;;;5.54;67.74;99817.47;5042383;28;20049;-77
2021/04/03 06:59:06;;;;;;;29.30;18.52;;;;;;;5.61;67.23;99817.13;5042944;28;20476;-78
2021/04/03 07:01:56;;;;;;;25.10;18.85;;;;;;;5.53;67.32;99822.81;5040936;28;20279;-77
2021/04/03 07:04:27;;;;;;;23.17;17.42;;;;;;;5.52;66.89;99826.34;4980161;28;20118;-77
2021/04/03 07:06:55;;;;;;;21.77;16.25;;;;;;;5.49;66.88;99826.53;4979407;28;20050;-78
2021/04/03 07:09:22;;;;;;;29.50;16.83;;;;;;;5.49;66.58;99831.75;4979137;28;20050;-77
2021/04/03 07:11:50;;;;;;;27.70;19.88;;;;;;;5.45;66.79;99828.47;4979538;28;20050;-78
2021/04/03 07:14:18;;;;;;;33.67;21.80;;;;;;;5.52;67.09;99835.03;4980643;28;20054;-77
2021/04/03 07:16:46;;;;;;;34.08;24.63;;;;;;;5.56;67.06;99840.94;4980686;28;20097;-81
2021/04/03 07:19:14;;;;;;;38.30;27.40;;;;;;;5.71;66.82;99842.69;4982511;28;20047;-79
2021/04/03 07:21:41;;;;;;;22.20;13.85;;;;;;;5.80;66.50;99846.56;4981555;28;20062;-79
2021/04/03 07:24:10;;;;;;;24.45;16.75;;;;;;;5.87;66.57;99847.88;4987600;28;20082;-81
2021/04/03 07:26:40;;;;;;;21.10;15.20;;;;;;;5.86;66.23;99856.66;4980895;28;20054;-79
2021/04/03 07:29:07;;;;;;;22.92;16.50;;;;;;;5.92;66.17;99856.31;4979764;28;20061;-80
2021/04/03 07:31:41;;;;;;;19.63;14.35;;;;;;;5.96;65.65;99864.88;4982027;28;20058;-80
2021/04/03 07:34:09;;;;;;;23.92;14.50;;;;;;;6.03;64.66;99867.94;4980966;28;20562;-79
2021/04/03 07:36:38;;;;;;;20.13;13.73;;;;;;;6.09;64.89;99876.28;4983746;28;20054;-79
2021/04/03 07:39:07;;;;;;;23.75;13.30;;;;;;;6.09;64.83;99878.09;4982784;28;20109;-77
2021/04/03 07:41:40;;;;;;;20.50;14.27;;;;;;;6.21;64.65;99884.34;5032950;28;20053;-80
2021/04/03 07:44:16;;;;;;;17.88;13.73;;;;;;;6.15;64.49;99892.59;5051264;28;20045;-80
2021/04/03 07:46:44;;;;;;;17.73;13.30;;;;;;;6.13;64.12;99895.31;5049423;28;20526;-81
2021/04/03 07:49:11;;;;;;;18.48;12.32;;;;;;;6.15;64.54;99882.09;5050903;28;20044;-79
2021/04/03 07:51:47;;;;;;;17.90;11.88;;;;;;;6.27;64.47;99897.09;5051659;28;20055;-80
2021/04/03 07:54:38;;;;;;;19.93;12.90;;;;;;;6.37;64.11;99897.38;5051185;28;20546;-78
2021/04/03 07:57:11;;;;;;;15.23;11.00;;;;;;;6.27;63.46;99907.59;5044483;28;20295;-80
2021/04/03 07:59:59;;;;;;;19.08;12.93;;;;;;;6.30;61.87;99903.00;5041394;28;20045;-80
2021/04/03 08:02:27;;;;;;;18.33;12.00;;;;;;;6.28;61.71;99909.28;5044326;28;20045;-79
2021/04/03 08:04:56;;;;;;;14.50;9.40;;;;;;;6.37;62.21;99907.88;5048127;28;20091;-81
2021/04/03 08:07:24;;;;;;;17.90;12.90;;;;;;;6.46;61.50;99912.56;5055449;28;20061;-78
2021/04/03 08:09:50;;;;;;;15.13;12.93;;;;;;;6.58;60.90;99919.69;5046990;28;20530;-80
2021/04/03 08:12:22;;;;;;;17.48;14.95;;;;;;;6.69;61.00;99919.88;5043326;28;20045;-80
2021/04/03 08:14:52;;;;;;;12.55;9.68;;;;;;;6.73;59.69;99917.91;5044890;28;20049;-81
2021/04/03 08:17:22;;;;;;;27.38;10.95;;;;;;;6.79;59.15;99914.03;5046201;28;20069;-79
2021/04/03 08:19:49;;;;;;;16.58;10.30;;;;;;;7.05;59.69;99934.25;5044776;28;20608;-81
2021/04/03 08:22:16;;;;;;;15.13;11.27;;;;;;;7.09;58.31;99927.03;5051680;28;20133;-80
2021/04/03 08:24:58;;;;;;;14.23;9.43;;;;;;;7.13;57.88;99932.94;5049271;28;20059;-79
2021/04/03 08:27:40;;;;;;;13.73;10.05;;;;;;;7.25;57.88;99937.41;5047029;28;20678;-81
2021/04/03 08:30:24;;;;;;;13.73;9.73;;;;;;;7.49;58.30;99932.38;5048818;28;20056;-82
2021/04/03 08:33:07;;;;;;;16.73;12.02;;;;;;;7.49;58.02;99942.03;5043731;28;20136;-78
2021/04/03 08:35:38;;;;;;;13.38;10.38;;;;;;;7.23;57.43;99942.75;5049160;28;20198;-80
2021/04/03 08:38:22;;;;;;;13.30;9.77;;;;;;;7.10;57.43;99947.13;5060668;28;20052;-82
2021/04/03 08:40:50;;;;;;;15.13;10.65;;;;;;;6.93;56.81;99942.91;5048407;28;20145;-80
2021/04/03 08:43:23;;;;;;;13.15;9.13;;;;;;;6.96;57.12;99945.34;5047656;28;20057;-82
2021/04/03 08:45:50;;;;;;;9.98;8.02;;;;;;;6.99;57.30;99954.84;5049726;28;20045;-80
2021/04/03 08:48:17;;;;;;;10.57;8.27;;;;;;;7.05;57.23;99957.06;5048367;28;20657;-83
2021/04/03 08:50:47;;;;;;;13.50;8.20;;;;;;;7.09;57.18;99961.16;5051679;28;20059;-80
2021/04/03 08:53:14;;;;;;;11.75;8.10;;;;;;;7.23;56.82;99965.56;5049878;28;20059;-80
2021/04/03 08:55:41;;;;;;;10.40;6.88;;;;;;;7.66;56.79;99958.41;5051926;28;20041;-82
2021/04/03 08:58:10;;;;;;;10.40;7.38;;;;;;;7.76;54.84;99958.66;5047259;28;20063;-82
2021/04/03 09:00:39;;;;;;;12.63;8.45;;;;;;;8.19;54.19;99960.19;5047100;28;20040;-82
2021/04/03 09:03:07;;;;;;;15.82;12.23;;;;;;;8.99;53.00;99955.59;5046913;28;20168;-80
2021/04/03 09:05:34;;;;;;;8.88;6.85;;;;;;;8.75;51.13;99958.16;5044967;28;20067;-80
2021/04/03 09:08:00;;;;;;;15.93;6.72;;;;;;;8.31;49.46;99958.53;5047081;28;20049;-79
2021/04/03 09:10:27;;;;;;;10.02;6.45;;;;;;;8.01;50.96;99968.41;5048372;28;20690;-79
2021/04/03 09:12:54;;;;;;;11.65;7.20;;;;;;;7.93;51.63;99975.09;5052318;28;20508;-83
2021/04/03 09:15:29;;;;;;;11.75;7.13;;;;;;;8.00;52.43;99971.97;5050320;28;20128;-81
2021/04/03 09:17:58;;;;;;;12.30;7.93;;;;;;;8.17;52.69;99968.19;5051059;28;20825;-80
2021/04/03 09:20:25;;;;;;;11.32;7.53;;;;;;;8.20;51.17;99978.53;5050883;28;20651;-79
2021/04/03 09:22:53;;;;;;;9.25;7.32;;;;;;;7.92;51.47;99974.25;5045753;28;20140;-82
2021/04/03 09:25:21;;;;;;;11.00;7.32;;;;;;;7.77;51.65;99980.53;5045360;28;20613;-79
2021/04/03 09:28:00;;;;;;;11.10;7.85;;;;;;;7.70;49.75;99984.50;5045766;28;20072;-79
2021/04/03 09:30:35;;;;;;;11.80;6.75;;;;;;;7.68;50.59;99981.13;5040501;28;20049;-80
2021/04/03 09:33:17;;;;;;;12.48;7.82;;;;;;;7.99;50.99;99990.47;5045302;28;20049;-81
2021/04/03 09:35:44;;;;;;;6.53;5.47;;;;;;;8.89;50.32;99983.50;5043921;28;20056;-82
2021/04/03 09:38:11;;;;;;;15.02;8.30;;;;;;;9.35;48.92;99980.25;5043538;28;20055;-81
2021/04/03 09:40:41;;;;;;;8.63;5.95;;;;;;;9.30;45.67;99974.47;5044102;28;20052;-81
2021/04/03 09:43:08;;;;;;;9.23;6.78;;;;;;;9.26;46.73;99983.56;5043973;28;20045;-82
2021/04/03 09:45:36;;;;;;;8.15;5.97;;;;;;;9.36;44.90;99981.09;5043393;28;20075;-79
2021/04/03 09:48:02;;;;;;;6.90;5.25;;;;;;;9.50;45.02;99980.13;5045371;28;20052;-77
2021/04/03 09:50:30;;;;;;;9.07;5.82;;;;;;;9.62;45.28;99973.94;5042479;28;20040;-80
2021/04/03 09:52:56;;;;;;;10.70;7.10;;;;;;;9.84;45.73;99977.66;5043742;28;20045;-77
2021/04/03 09:55:23;;;;;;;7.20;6.45;;;;;;;9.63;45.59;99977.41;5043216;28;20118;-78
2021/04/03 09:57:49;;;;;;;8.20;6.07;;;;;;;9.25;45.62;99983.66;5044010;28;20118;-81
2021/04/03 10:00:16;;;;;;;8.70;5.00;;;;;;;8.94;46.19;99977.94;5044851;28;20051;-79
2021/04/03 10:02:42;;;;;;;5.80;4.50;;;;;;;8.97;46.37;99986.47;5047086;28;20052;-80
2021/04/03 10:05:12;;;;;;;5.78;3.05;;;;;;;9.02;44.78;99980.88;5048921;28;20105;-81
2021/04/03 10:07:41;;;;;;;5.55;3.28;;;;;;;9.23;43.17;99978.50;5044096;28;20502;-80
2021/04/03 10:10:09;;;;;;;5.22;3.42;;;;;;;9.57;41.83;99976.06;5046943;28;20052;-79
2021/04/03 10:12:35;;;;;;;8.23;4.68;;;;;;;9.67;42.20;99982.38;5045229;28;20075;-78
2021/04/03 10:15:02;;;;;;;4.22;3.15;;;;;;;9.38;41.82;99977.41;5043661;28;20047;-80
2021/04/03 10:17:29;;;;;;;6.20;3.92;;;;;;;9.16;41.29;99987.78;5044033;28;20631;-79
2021/04/03 10:19:56;;;;;;;5.88;3.05;;;;;;;9.40;40.60;99990.50;5043062;28;20106;-80
2021/04/03 10:22:22;;;;;;;4.05;2.38;;;;;;;9.50;40.72;99982.75;5043367;28;20540;-79
2021/04/03 10:24:51;;;;;;;6.25;3.70;;;;;;;9.69;40.40;99983.09;5045806;28;20049;-80
2021/04/03 10:27:18;;;;;;;7.38;3.22;;;;;;;9.80;40.74;99970.94;5048540;28;20057;-80
2021/04/03 10:29:44;;;;;;;4.40;2.60;;;;;;;10.27;38.00;99977.09;5045661;28;20321;-77
2021/04/03 10:32:10;;;;;;;7.05;4.78;;;;;;;9.98;37.58;99982.75;5049766;28;20102;-79
2021/04/03 10:34:40;;;;;;;7.97;3.15;;;;;;;10.01;38.79;99979.88;5049069;28;20059;-79
2021/04/03 10:37:07;;;;;;;8.52;4.10;;;;;;;10.41;38.94;99979.53;5045515;28;20360;-77
2021/04/03 10:39:33;;;;;;;7.30;4.05;;;;;;;10.72;37.99;99977.19;5046429;28;20073;-79
2021/04/03 10:42:16;;;;;;;4.88;3.28;;;;;;;10.95;37.14;99979.81;5045972;28;20049;-78
2021/04/03 10:44:44;;;;;;;5.45;3.70;;;;;;;11.39;36.79;99978.09;5056141;28;20087;-79
2021/04/03 10:47:11;;;;;;;5.13;2.58;;;;;;;11.01;35.11;99976.72;5050253;28;20129;-79
2021/04/03 10:49:39;;;;;;;4.82;2.67;;;;;;;10.84;35.96;99981.53;5054219;28;20053;-81
2021/04/03 10:52:06;;;;;;;6.10;3.53;;;;;;;10.60;36.84;99978.13;5055122;28;20552;-80
2021/04/03 10:54:35;;;;;;;8.52;2.70;;;;;;;10.73;36.80;99986.78;5052496;28;20139;-80
2021/04/03 10:57:02;;;;;;;8.15;3.85;;;;;;;11.01;36.61;99979.34;5049518;28;20847;-80
2021/04/03 10:59:47;;;;;;;4.25;2.72;;;;;;;11.24;36.59;99967.78;5050079;28;20048;-80
2021/04/03 11:02:15;;;;;;;2.42;2.00;;;;;;;11.34;36.82;99967.06;5053010;28;20056;-81
2021/04/03 11:04:42;;;;;;;5.60;3.55;;;;;;;11.60;36.81;99971.09;5049880;28;20113;-80
2021/04/03 11:07:09;;;;;;;5.10;2.63;;;;;;;11.24;35.16;99973.09;5044072;28;20052;-81
2021/04/03 11:09:36;;;;;;;4.82;2.55;;;;;;;10.89;35.62;99962.66;5043988;28;20612;-79
2021/04/03 11:12:03;;;;;;;4.65;2.65;;;;;;;10.81;37.05;99963.25;5040367;28;20044;-79
2021/04/03 11:14:29;;;;;;;5.13;3.35;;;;;;;11.21;37.43;99970.69;5043043;28;20052;-78
2021/04/03 11:16:58;;;;;;;4.63;2.22;;;;;;;11.81;37.11;99962.34;5042494;28;20057;-80
2021/04/03 11:19:24;;;;;;;7.78;3.60;;;;;;;12.27;36.27;99961.19;5039876;28;20075;-81
2021/04/03 11:21:52;;;;;;;8.15;3.42;;;;;;;12.28;34.14;99951.44;5042243;28;20163;-78
2021/04/03 11:24:19;;;;;;;3.67;2.38;;;;;;;12.17;35.64;99957.63;5042517;28;20646;-78
2021/04/03 11:26:45;;;;;;;4.22;2.00;;;;;;;12.14;35.73;99956.09;5039819;28;20041;-76
2021/04/03 11:29:11;;;;;;;2.72;2.15;;;;;;;12.12;36.26;99959.81;5038451;28;20049;-79
2021/04/03 11:31:38;;;;;;;4.28;3.00;;;;;;;11.75;34.50;99968.16;5038750;28;20057;-79
2021/04/03 11:34:06;;;;;;;5.45;4.10;;;;;;;11.24;35.93;99983.66;5043331;28;20481;-79
2021/04/03 11:36:32;;;;;;;5.00;3.28;;;;;;;10.70;37.46;99997.59;5039377;28;20075;-78
2021/04/03 11:38:59;;;;;;;4.43;3.53;;;;;;;9.69;42.70;100009.47;5037490;28;20045;-78
2021/04/03 11:41:25;;;;;;;4.95;3.30;;;;;;;8.42;49.16;100035.84;5037497;28;20067;-78